Notice: Undefined index: language in /home/spanairv/public_html/vam/index.php on line 25
Spanair Virtual

 INFORMACIÓN METAR y TAF
METAR FOR LEBB
ADDS - METARS form results

(1254 UTC 21 April 2019)
Data provider http://aviationweather.gov/metar/data/
 
METAR text: LEBB 211230Z 33011KT 300V360 9999 SCT022 SCT036 16/12 Q1014 NOSIG
Conditions at: LEBB (BILBAO/SONDICA , ES) observed 1230 UTC 21 April 2019
Temperature: 16.0°C (61°F)
Dewpoint: 12.0°C (54°F) [RH = 77%]
Pressure (altimeter): 29.94 inches Hg (1014.0 mb)
Winds: from the NNW (330 degrees) at 13 MPH (11 knots; 5.7 m/s)
Visibility: 6 or more miles (10+ km)
Ceiling: at least 12,000 feet AGL
Clouds: scattered clouds at 2200 feet AGL
scattered clouds at 3600 feet AGL
Weather: no significant weather observed at this time

METAR text: LEBB 211200Z 32010KT 290V360 9999 FEW020 SCT033 17/12 Q1015 NOSIG
Conditions at: LEBB (BILBAO/SONDICA , ES) observed 1200 UTC 21 April 2019
Temperature: 17.0°C (63°F)
Dewpoint: 12.0°C (54°F) [RH = 72%]
Pressure (altimeter): 29.97 inches Hg (1015.0 mb)
Winds: from the NW (320 degrees) at 12 MPH (10 knots; 5.1 m/s)
Visibility: 6 or more miles (10+ km)
Ceiling: at least 12,000 feet AGL
Clouds: few clouds at 2000 feet AGL
scattered clouds at 3300 feet AGL
Weather: no significant weather observed at this time

Forecast for: LEBB (BILBAO/SONDICA , ES)
Text: TAF LEBB 211100Z 2112/2212 33006KT 9999 SCT020 TX19/2212Z TN09/2206Z
Forecast period: 1200 UTC 21 April 2019 to 1200 UTC 22 April 2019
Forecast type: FROM: standard forecast or significant change
Winds: from the NNW (330 degrees) at 7 MPH (6 knots; 3.1 m/s)
Visibility: 6 or more miles 10+ km)
Ceiling: at least 12,000 feet AGL
Clouds: scattered clouds at 2000 feet AGL
Weather: no significant weather forecast for this period

 MAPA DE AEROPUERTO

 INFORMACIÓN DE PISTA
Pista 10 Longitud 6562 ft Ancho 148 ft
Elevación 116 ft Umbral desplazado 0 ft Rumbo de pista 97
Pista 28 Longitud 6562 ft Ancho 148 ft
Elevación 129 ft Umbral desplazado 0 ft Rumbo de pista 277
Pista 12 Longitud 8530 ft Ancho 148 ft
Elevación 119 ft Umbral desplazado 0 ft Rumbo de pista 117
Pista 30 Longitud 8530 ft Ancho 148 ft
Elevación 128 ft Umbral desplazado 1509 ft Rumbo de pista 297

 FRECUANCIAS DEL AEROPUERTO
Tipo APP Nombre APP Frecuencia 120.7 MHZ
Tipo ATIS Nombre ATIS Frecuencia 118.825 MHZ
Tipo GND Nombre GND Frecuencia 121.7 MHZ
Tipo TWR Nombre TWR Frecuencia 118.5 MHZ

 RADIO AYUDAS DEL AEROPUERTO
Tipo VOR-DME Nombre Bilbao Frecuencia 115900 KHZ





VAM [v2.6.2]

Normativa | Spanair Virtual © 2017 | Customized by JZ © 2017 for Spanair Virtual